Wynona, Oklahoma
Current Conditions -  °F | °C
As of 12:53 AM on Thursday 23 Oct 2014 (Local Time) from KBVO Reporting Station
Broken Clouds Broken Clouds  
Wind Chill: 64°   Ceiling: 12000
Heat Index: 64°   Visibility: 10mi
Dew Point: 57°   Wind: 0mph
Humidity: 78%   Direction: NA
Pressure: 30.13"   Gusts: NA
Location:  36.55°N, 96.33°W
Report Text: KBVO 230553Z AUTO 00000KT 10SM BKN120 18/14 A3013 RMK AO2 SLP195 T01780139 10194 20161 402670111 51006
Loading
Personal Weather Stations






























Interactive Weather Map
Tropical Storm Tracking
New forecast layout! Learn more

10-Day Weather Forecast

Advertisements
Track Severe Weather on mobile